Minerva Anna — SVNP — position and weather

sailwx.info

Track history (hours):
 
Tides and Currents Weather Stations Pressure Air Temp Water Temp Dewpoint Dewpoint Depression Visibility Wind Speed Wind Dir Waves Ship Positions

Minerva Anna

Last reported at 2016-Jul-31 00:33 UTC. Time now 2016-Jul-31 01:33 UTC.
Position N 35°59' E 014°50'.

Length 183 m; draft 8.3 m.

Type: Ship (hazmat cat A). MMSI: 240729000.

Date/timePositionNaut miles runAvg speedWind from/ knotsBaromVisibWave heightAir tempDewpointWater temp
2016-Jul-31 00:33N 35°59' E 014°50'0 0.0
2016-Jul-30 22:33N 35°59' E 014°50'0 0.1
2016-Jul-30 21:33N 35°59' E 014°50'0 0.0
2016-Jul-30 20:33N 35°59' E 014°50'0 0.0
2016-Jul-30 19:33N 35°59' E 014°50'0 0.0
2016-Jul-30 18:33N 35°59' E 014°50'0 0.0
2016-Jul-30 17:33N 35°59' E 014°50'0 0.0
2016-Jul-30 16:33N 35°59' E 014°50'0 0.0
2016-Jul-30 15:33N 35°59' E 014°50'0 0.0
2016-Jul-30 14:33N 35°59' E 014°50'0 0.1
2016-Jul-30 13:33N 35°59' E 014°50'0 0.1
2016-Jul-30 12:33N 35°59' E 014°50'0 0.1
2016-Jul-30 11:33N 35°59' E 014°50'0 0.1
2016-Jul-30 10:33N 35°59' E 014°50'0 0.0
2016-Jul-30 09:33N 35°59' E 014°50'0 0.0
2016-Jul-30 08:33N 35°59' E 014°50'0 0.1
2016-Jul-30 07:33N 35°59' E 014°50'0 0.0
2016-Jul-30 06:33N 35°59' E 014°50'0 0.0
2016-Jul-30 05:30N 35°59' E 014°50'0 0.0
2016-Jul-30 04:33N 35°59' E 014°50'0 0.0
2016-Jul-30 03:30N 35°59' E 014°50'0 0.0
2016-Jul-30 02:33N 35°59' E 014°50'0 0.0
2016-Jul-30 01:33N 35°59' E 014°50'0 0.3
2016-Jul-30 00:33N 35°59' E 014°51'2 1.8
2016-Jul-29 23:33N 36°01' E 014°50'1 0.6
2016-Jul-29 22:33N 36°01' E 014°50'1 0.6
2016-Jul-29 21:33N 36°00' E 014°49'1 0.7
2016-Jul-29 20:34N 36°00' E 014°48'2 2.2
2016-Jul-29 19:33N 35°58' E 014°48'3 2.7
2016-Jul-29 18:33N 35°57' E 014°45'6 6.3
2016-Jul-29 17:33N 35°54' E 014°38'1 0.9
2016-Jul-29 16:33N 35°55' E 014°38'7 6.6
2016-Jul-29 15:33N 36°01' E 014°34'1413.7
2016-Jul-29 14:33N 36°12' E 014°23'1515.4
2016-Jul-29 13:34N 36°17' E 014°06'1615.5
2016-Jul-29 12:34N 36°24' E 013°48'1515.2
2016-Jul-29 11:33N 36°30' E 013°31'1515.4
2016-Jul-29 10:33N 36°37' E 013°14'1615.8
2016-Jul-29 09:33N 36°42' E 012°55'1515.3
2016-Jul-29 08:33N 36°48' E 012°38'1515.2
2016-Jul-29 07:33N 36°54' E 012°20'1515.4
2016-Jul-29 06:33N 37°00' E 012°03'1515.4
2016-Jul-29 05:33N 37°08' E 011°46'1615.5
2016-Jul-29 04:33N 37°15' E 011°29'1615.6
2016-Jul-29 03:33N 37°23' E 011°11'1515.1
2016-Jul-29 02:33N 37°30' E 010°55'1515.1
2016-Jul-29 01:33N 37°37' E 010°38'1615.7
2016-Jul-29 00:32N 37°45' E 010°21'1615.8
2016-Jul-28 23:33N 37°53' E 010°03'1515.3
2016-Jul-28 22:33N 37°60' E 009°46'1515.2
2016-Jul-28 21:33N 38°07' E 009°30'1615.3
2016-Jul-28 20:32N 38°15' E 009°12'1515.6
2016-Jul-28 19:34N 38°23' E 008°56'1615.9
2016-Jul-28 18:33N 38°30' E 008°37'1616.2
2016-Jul-28 17:33N 38°38' E 008°20'1715.8
2016-Jul-28 16:28N 38°47' E 008°01'1914.9
2016-Jul-28 15:13N 39°03' E 007°49'1015.3
2016-Jul-28 14:33N 39°13' E 007°43'1615.2
2016-Jul-28 13:32N 39°27' E 007°34'6015.2
2016-Jul-28 09:33N 40°20' E 006°59'6512.3
2016-Jul-28 04:14N 41°18' E 006°19'811.1
2016-Jul-28 03:33N 41°25' E 006°15'2210.9
2016-Jul-28 01:33N 41°45' E 006°02'1111.1
2016-Jul-28 00:32N 41°55' E 005°55'1111.0
2016-Jul-27 23:33N 42°04' E 005°48'1111.2
2016-Jul-27 22:33N 42°14' E 005°41'1111.3
2016-Jul-27 21:33N 42°24' E 005°33'1110.8
2016-Jul-27 20:33N 42°34' E 005°27'1211.0
2016-Jul-27 19:27N 42°45' E 005°20'1110.6
2016-Jul-27 18:22N 42°55' E 005°13'910.8
2016-Jul-27 17:33N 43°03' E 005°08'1110.7
2016-Jul-27 16:34N 43°12' E 005°01'1010.1
2016-Jul-27 15:33N 43°22' E 004°58'1 1.3
2016-Jul-27 14:31N 43°24' E 004°57'0 0.0
2016-Jul-27 13:31N 43°24' E 004°57'0 0.0
2016-Jul-27 12:31N 43°24' E 004°57'0 0.0
2016-Jul-27 11:31N 43°24' E 004°57'0 0.0
2016-Jul-27 10:31N 43°24' E 004°57'0 0.0
2016-Jul-27 09:31N 43°24' E 004°57'0 0.0
2016-Jul-27 08:31N 43°24' E 004°57'0 0.0
2016-Jul-27 07:31N 43°24' E 004°57'0 0.0
2016-Jul-27 06:31N 43°24' E 004°57'0 0.0
2016-Jul-27 05:31N 43°24' E 004°57'0 0.0
2016-Jul-27 04:31N 43°24' E 004°57'0 0.0
2016-Jul-27 03:31N 43°24' E 004°57'0 0.0
2016-Jul-27 02:31N 43°24' E 004°57'0 0.0
2016-Jul-27 01:31N 43°24' E 004°57'0 0.0
2016-Jul-27 00:31N 43°24' E 004°57'0 0.0
2016-Jul-26 23:31N 43°24' E 004°57'0 0.0
2016-Jul-26 22:31N 43°24' E 004°57'0 0.0
2016-Jul-26 21:31N 43°24' E 004°57'0 0.0
2016-Jul-26 20:31N 43°24' E 004°57'0 0.0
2016-Jul-26 19:31N 43°24' E 004°57'0 0.0
2016-Jul-26 18:28N 43°24' E 004°57'0 0.0
2016-Jul-26 17:31N 43°24' E 004°57'0 0.0
2016-Jul-26 16:31N 43°24' E 004°57'0 0.0
2016-Jul-26 15:31N 43°24' E 004°57'0 0.0
2016-Jul-26 14:31N 43°24' E 004°57'0 0.0
2016-Jul-26 13:31N 43°24' E 004°57'0 0.0
2016-Jul-26 12:31N 43°24' E 004°57'0 0.0
2016-Jul-26 11:31N 43°24' E 004°57'0 0.0
2016-Jul-26 10:31N 43°24' E 004°57'0 0.0
2016-Jul-26 09:31N 43°24' E 004°57'0 0.0
2016-Jul-26 08:31N 43°24' E 004°57'0 0.0
2016-Jul-26 07:28N 43°24' E 004°57'0 0.0
2016-Jul-26 06:31N 43°24' E 004°57'0 0.0
2016-Jul-26 05:31N 43°24' E 004°57'0 0.0
2016-Jul-26 04:31N 43°24' E 004°57'0 0.0
2016-Jul-26 03:31N 43°24' E 004°57'0 0.0
2016-Jul-26 02:28N 43°24' E 004°57'0 0.0
2016-Jul-26 01:31N 43°24' E 004°57'0 0.0
2016-Jul-26 00:31N 43°24' E 004°57'0 0.0
2016-Jul-25 23:31N 43°24' E 004°57'0 0.0
2016-Jul-25 22:31N 43°24' E 004°57'0 0.0
2016-Jul-25 21:31N 43°24' E 004°57'0 0.0
2016-Jul-25 20:31N 43°24' E 004°57'0 0.0
2016-Jul-25 19:31N 43°24' E 004°57'0 0.0
2016-Jul-25 18:31N 43°24' E 004°57'0 0.0
2016-Jul-25 17:31N 43°24' E 004°57'0 0.0
2016-Jul-25 16:31N 43°24' E 004°57'0 0.1
2016-Jul-25 15:31N 43°24' E 004°57'0 0.0
2016-Jul-25 14:31N 43°24' E 004°57'0 0.0
2016-Jul-25 13:31N 43°24' E 004°57'0 0.1
2016-Jul-25 12:31N 43°24' E 004°57'0 0.0
2016-Jul-25 11:31N 43°24' E 004°57'0 0.1
2016-Jul-25 10:28N 43°24' E 004°57'0 0.1
2016-Jul-25 09:31N 43°24' E 004°57'0 0.0
2016-Jul-25 08:31N 43°24' E 004°57'0 0.0
2016-Jul-25 07:31N 43°24' E 004°57'0 0.0
2016-Jul-25 06:31N 43°24' E 004°57'0 0.0
2016-Jul-25 05:25N 43°24' E 004°57'0 0.0
2016-Jul-25 04:31N 43°24' E 004°57'0 0.0
2016-Jul-25 03:28N 43°24' E 004°57'0 0.0
2016-Jul-25 02:31N 43°24' E 004°57'0 0.0
2016-Jul-25 01:25N 43°24' E 004°57'0 0.1
2016-Jul-25 00:31N 43°24' E 004°57'0 0.0
2016-Jul-24 23:31N 43°24' E 004°57'0 0.0
2016-Jul-24 22:31N 43°24' E 004°57'0 0.0
2016-Jul-24 21:31N 43°24' E 004°57'0 0.1
2016-Jul-24 20:28N 43°24' E 004°57'0 0.0
2016-Jul-24 19:31N 43°24' E 004°57'0 0.0
2016-Jul-24 18:28N 43°24' E 004°57'0 0.0
2016-Jul-24 17:31N 43°24' E 004°57'0 0.0
2016-Jul-24 16:31N 43°24' E 004°57'0 0.0
2016-Jul-24 15:31N 43°24' E 004°57'0 0.0
2016-Jul-24 14:31N 43°24' E 004°57'0 0.0
2016-Jul-24 13:31N 43°24' E 004°57'0 0.0
2016-Jul-24 12:31N 43°24' E 004°57'0 0.0
2016-Jul-24 11:31N 43°24' E 004°57'0 0.0
2016-Jul-24 10:31N 43°24' E 004°57'0 0.0
2016-Jul-24 09:31N 43°24' E 004°57'0 0.0
2016-Jul-24 08:31N 43°24' E 004°57'0 0.0
2016-Jul-24 07:31N 43°24' E 004°57'0 0.0
2016-Jul-24 06:31N 43°24' E 004°57'0 0.0
2016-Jul-24 05:31N 43°24' E 004°57'0 0.1
2016-Jul-24 04:31N 43°24' E 004°57'0 0.0
2016-Jul-24 03:31N 43°24' E 004°57'0 0.0
2016-Jul-24 02:31N 43°24' E 004°57'0 0.0
2016-Jul-24 01:28N 43°24' E 004°57'0 0.0
2016-Jul-24 00:31N 43°24' E 004°57'0 0.0
2016-Jul-23 23:31N 43°24' E 004°57'0 0.0
2016-Jul-23 22:31N 43°24' E 004°57'0 0.0
2016-Jul-23 21:31N 43°24' E 004°57'0 0.0
2016-Jul-23 20:31N 43°24' E 004°57'0 0.0
2016-Jul-23 19:31N 43°24' E 004°57'2 1.7
2016-Jul-23 18:33N 43°24' E 004°60'0 0.1
2016-Jul-23 17:28N 43°24' E 004°60'0 0.0
2016-Jul-23 16:31N 43°24' E 004°60'0 0.0
2016-Jul-23 15:32N 43°24' E 004°60'0 0.0
2016-Jul-23 14:31N 43°24' E 004°60'0 0.0
2016-Jul-23 13:31N 43°24' E 004°60'0 0.0
2016-Jul-23 12:31N 43°24' E 004°60'0 0.0
2016-Jul-23 11:32N 43°24' E 004°60'0 0.0
2016-Jul-23 10:31N 43°24' E 004°60'0 0.0
2016-Jul-23 09:31N 43°24' E 004°60'0 0.0
2016-Jul-23 08:29N 43°24' E 004°60'0 0.0
2016-Jul-23 07:31N 43°24' E 004°60'0 0.0
2016-Jul-23 06:28N 43°24' E 004°60'0 0.0
2016-Jul-23 04:31N 43°24' E 004°60'0 0.0
2016-Jul-23 03:31N 43°24' E 004°60'0 0.0
2016-Jul-23 02:31N 43°24' E 004°60'0 0.0
2016-Jul-23 01:31N 43°24' E 004°60'0 0.0
2016-Jul-23 00:31N 43°24' E 004°60'0 0.0
2016-Jul-22 23:29N 43°24' E 004°60'0 0.0
2016-Jul-22 22:28N 43°24' E 004°60'0 0.0
2016-Jul-22 21:31N 43°24' E 004°60'0 0.0
2016-Jul-22 20:32N 43°24' E 004°60'0 0.0
2016-Jul-22 19:32N 43°24' E 004°60'0 0.0
2016-Jul-22 18:32N 43°24' E 004°60'0 0.0
2016-Jul-22 17:31N 43°24' E 004°60'0 0.0
2016-Jul-22 16:28N 43°24' E 004°60'0 0.0
2016-Jul-22 15:32N 43°24' E 004°60'0 0.0
2016-Jul-22 14:29N 43°24' E 004°60'0 0.0
2016-Jul-22 13:31N 43°24' E 004°60'0 0.0
2016-Jul-22 12:28N 43°24' E 004°60'0 0.0
2016-Jul-22 11:31N 43°24' E 004°60'0 0.0
2016-Jul-22 10:31N 43°24' E 004°60'0 0.0
2016-Jul-22 09:32N 43°24' E 004°60'0 0.0
2016-Jul-22 08:31N 43°24' E 004°60'0 0.0
2016-Jul-22 07:31N 43°24' E 004°60'0 0.0
2016-Jul-22 04:31N 43°24' E 004°60'0 0.0
2016-Jul-22 03:28N 43°24' E 004°60'0 0.0
2016-Jul-22 02:31N 43°24' E 004°60'0 0.0
2016-Jul-22 01:32N 43°24' E 004°60'0 0.0
2016-Jul-22 00:31N 43°24' E 004°60'0 0.0
2016-Jul-21 23:32N 43°24' E 004°60'0 0.0
2016-Jul-21 22:31N 43°24' E 004°60'0 0.0
2016-Jul-21 21:28N 43°24' E 004°60'0 0.0
2016-Jul-21 20:32N 43°24' E 004°60'0 0.0
2016-Jul-21 19:31N 43°24' E 004°60'0 0.0
2016-Jul-21 18:28N 43°24' E 004°60'0 0.0
2016-Jul-21 17:32N 43°24' E 004°60'0 0.0
2016-Jul-21 16:31N 43°24' E 004°60'0 0.0
2016-Jul-21 15:33N 43°24' E 004°60'0 0.0
2016-Jul-21 14:33N 43°24' E 004°60'0 0.0
2016-Jul-21 13:33N 43°24' E 004°60'0 0.0
2016-Jul-21 12:33N 43°24' E 004°60'0 0.0
2016-Jul-21 11:33N 43°24' E 004°60'0 0.0
2016-Jul-21 10:30N 43°24' E 004°60'0 0.0
2016-Jul-21 09:33N 43°24' E 004°60'0 0.0
2016-Jul-21 08:12N 43°24' E 004°60'0 0.0
2016-Jul-21 07:30N 43°24' E 004°60'0 0.0
2016-Jul-21 06:30N 43°24' E 004°60'0 0.0
2016-Jul-21 05:30N 43°24' E 004°60'0 0.0
2016-Jul-21 04:30N 43°24' E 004°60'0 0.0
2016-Jul-21 03:30N 43°24' E 004°60'0 0.0
2016-Jul-21 02:30N 43°24' E 004°60'0 0.0
2016-Jul-21 01:30N 43°24' E 004°60'  
Track history (hours):
 
Tides and Currents Weather Stations Pressure Air Temp Water Temp Dewpoint Dewpoint Depression Visibility Wind Speed Wind Dir Waves Ship Positions

Minerva Anna

Last reported at 2016-Jul-31 00:33 UTC. Time now 2016-Jul-31 01:33 UTC.
Position N 35°59' E 014°50'.

Length 183 m; draft 8.3 m.

Type: Ship (hazmat cat A). MMSI: 240729000.

Date/timePositionNaut miles runAvg speedWind from/ knotsBaromVisibWave heightAir tempDewpointWater temp
2016-Jul-31 00:33N 35°59' E 014°50'0 0.0
2016-Jul-30 22:33N 35°59' E 014°50'0 0.1
2016-Jul-30 21:33N 35°59' E 014°50'0 0.0
2016-Jul-30 20:33N 35°59' E 014°50'0 0.0
2016-Jul-30 19:33N 35°59' E 014°50'0 0.0
2016-Jul-30 18:33N 35°59' E 014°50'0 0.0
2016-Jul-30 17:33N 35°59' E 014°50'0 0.0
2016-Jul-30 16:33N 35°59' E 014°50'0 0.0
2016-Jul-30 15:33N 35°59' E 014°50'0 0.0
2016-Jul-30 14:33N 35°59' E 014°50'0 0.1
2016-Jul-30 13:33N 35°59' E 014°50'0 0.1
2016-Jul-30 12:33N 35°59' E 014°50'0 0.1
2016-Jul-30 11:33N 35°59' E 014°50'0 0.1
2016-Jul-30 10:33N 35°59' E 014°50'0 0.0
2016-Jul-30 09:33N 35°59' E 014°50'0 0.0
2016-Jul-30 08:33N 35°59' E 014°50'0 0.1
2016-Jul-30 07:33N 35°59' E 014°50'0 0.0
2016-Jul-30 06:33N 35°59' E 014°50'0 0.0
2016-Jul-30 05:30N 35°59' E 014°50'0 0.0
2016-Jul-30 04:33N 35°59' E 014°50'0 0.0
2016-Jul-30 03:30N 35°59' E 014°50'0 0.0
2016-Jul-30 02:33N 35°59' E 014°50'0 0.0
2016-Jul-30 01:33N 35°59' E 014°50'0 0.3
2016-Jul-30 00:33N 35°59' E 014°51'2 1.8
2016-Jul-29 23:33N 36°01' E 014°50'1 0.6
2016-Jul-29 22:33N 36°01' E 014°50'1 0.6
2016-Jul-29 21:33N 36°00' E 014°49'1 0.7
2016-Jul-29 20:34N 36°00' E 014°48'2 2.2
2016-Jul-29 19:33N 35°58' E 014°48'3 2.7
2016-Jul-29 18:33N 35°57' E 014°45'6 6.3
2016-Jul-29 17:33N 35°54' E 014°38'1 0.9
2016-Jul-29 16:33N 35°55' E 014°38'7 6.6
2016-Jul-29 15:33N 36°01' E 014°34'1413.7
2016-Jul-29 14:33N 36°12' E 014°23'1515.4
2016-Jul-29 13:34N 36°17' E 014°06'1615.5
2016-Jul-29 12:34N 36°24' E 013°48'1515.2
2016-Jul-29 11:33N 36°30' E 013°31'1515.4
2016-Jul-29 10:33N 36°37' E 013°14'1615.8
2016-Jul-29 09:33N 36°42' E 012°55'1515.3
2016-Jul-29 08:33N 36°48' E 012°38'1515.2
2016-Jul-29 07:33N 36°54' E 012°20'1515.4
2016-Jul-29 06:33N 37°00' E 012°03'1515.4
2016-Jul-29 05:33N 37°08' E 011°46'1615.5
2016-Jul-29 04:33N 37°15' E 011°29'1615.6
2016-Jul-29 03:33N 37°23' E 011°11'1515.1
2016-Jul-29 02:33N 37°30' E 010°55'1515.1
2016-Jul-29 01:33N 37°37' E 010°38'1615.7
2016-Jul-29 00:32N 37°45' E 010°21'1615.8
2016-Jul-28 23:33N 37°53' E 010°03'1515.3
2016-Jul-28 22:33N 37°60' E 009°46'1515.2
2016-Jul-28 21:33N 38°07' E 009°30'1615.3
2016-Jul-28 20:32N 38°15' E 009°12'1515.6
2016-Jul-28 19:34N 38°23' E 008°56'1615.9
2016-Jul-28 18:33N 38°30' E 008°37'1616.2
2016-Jul-28 17:33N 38°38' E 008°20'1715.8
2016-Jul-28 16:28N 38°47' E 008°01'1914.9
2016-Jul-28 15:13N 39°03' E 007°49'1015.3
2016-Jul-28 14:33N 39°13' E 007°43'1615.2
2016-Jul-28 13:32N 39°27' E 007°34'6015.2
2016-Jul-28 09:33N 40°20' E 006°59'6512.3
2016-Jul-28 04:14N 41°18' E 006°19'811.1
2016-Jul-28 03:33N 41°25' E 006°15'2210.9
2016-Jul-28 01:33N 41°45' E 006°02'1111.1
2016-Jul-28 00:32N 41°55' E 005°55'1111.0
2016-Jul-27 23:33N 42°04' E 005°48'1111.2
2016-Jul-27 22:33N 42°14' E 005°41'1111.3
2016-Jul-27 21:33N 42°24' E 005°33'1110.8
2016-Jul-27 20:33N 42°34' E 005°27'1211.0
2016-Jul-27 19:27N 42°45' E 005°20'1110.6
2016-Jul-27 18:22N 42°55' E 005°13'910.8
2016-Jul-27 17:33N 43°03' E 005°08'1110.7
2016-Jul-27 16:34N 43°12' E 005°01'1010.1
2016-Jul-27 15:33N 43°22' E 004°58'1 1.3
2016-Jul-27 14:31N 43°24' E 004°57'0 0.0
2016-Jul-27 13:31N 43°24' E 004°57'0 0.0
2016-Jul-27 12:31N 43°24' E 004°57'0 0.0
2016-Jul-27 11:31N 43°24' E 004°57'0 0.0
2016-Jul-27 10:31N 43°24' E 004°57'0 0.0
2016-Jul-27 09:31N 43°24' E 004°57'0 0.0
2016-Jul-27 08:31N 43°24' E 004°57'0 0.0
2016-Jul-27 07:31N 43°24' E 004°57'0 0.0
2016-Jul-27 06:31N 43°24' E 004°57'0 0.0
2016-Jul-27 05:31N 43°24' E 004°57'0 0.0
2016-Jul-27 04:31N 43°24' E 004°57'0 0.0
2016-Jul-27 03:31N 43°24' E 004°57'0 0.0
2016-Jul-27 02:31N 43°24' E 004°57'0 0.0
2016-Jul-27 01:31N 43°24' E 004°57'0 0.0
2016-Jul-27 00:31N 43°24' E 004°57'0 0.0
2016-Jul-26 23:31N 43°24' E 004°57'0 0.0
2016-Jul-26 22:31N 43°24' E 004°57'0 0.0
2016-Jul-26 21:31N 43°24' E 004°57'0 0.0
2016-Jul-26 20:31N 43°24' E 004°57'0 0.0
2016-Jul-26 19:31N 43°24' E 004°57'0 0.0
2016-Jul-26 18:28N 43°24' E 004°57'0 0.0
2016-Jul-26 17:31N 43°24' E 004°57'0 0.0
2016-Jul-26 16:31N 43°24' E 004°57'0 0.0
2016-Jul-26 15:31N 43°24' E 004°57'0 0.0
2016-Jul-26 14:31N 43°24' E 004°57'0 0.0
2016-Jul-26 13:31N 43°24' E 004°57'0 0.0
2016-Jul-26 12:31N 43°24' E 004°57'0 0.0
2016-Jul-26 11:31N 43°24' E 004°57'0 0.0
2016-Jul-26 10:31N 43°24' E 004°57'0 0.0
2016-Jul-26 09:31N 43°24' E 004°57'0 0.0
2016-Jul-26 08:31N 43°24' E 004°57'0 0.0
2016-Jul-26 07:28N 43°24' E 004°57'0 0.0
2016-Jul-26 06:31N 43°24' E 004°57'0 0.0
2016-Jul-26 05:31N 43°24' E 004°57'0 0.0
2016-Jul-26 04:31N 43°24' E 004°57'0 0.0
2016-Jul-26 03:31N 43°24' E 004°57'0 0.0
2016-Jul-26 02:28N 43°24' E 004°57'0 0.0
2016-Jul-26 01:31N 43°24' E 004°57'0 0.0
2016-Jul-26 00:31N 43°24' E 004°57'0 0.0
2016-Jul-25 23:31N 43°24' E 004°57'0 0.0
2016-Jul-25 22:31N 43°24' E 004°57'0 0.0
2016-Jul-25 21:31N 43°24' E 004°57'0 0.0
2016-Jul-25 20:31N 43°24' E 004°57'0 0.0
2016-Jul-25 19:31N 43°24' E 004°57'0 0.0
2016-Jul-25 18:31N 43°24' E 004°57'0 0.0
2016-Jul-25 17:31N 43°24' E 004°57'0 0.0
2016-Jul-25 16:31N 43°24' E 004°57'0 0.1
2016-Jul-25 15:31N 43°24' E 004°57'0 0.0
2016-Jul-25 14:31N 43°24' E 004°57'0 0.0
2016-Jul-25 13:31N 43°24' E 004°57'0 0.1
2016-Jul-25 12:31N 43°24' E 004°57'0 0.0
2016-Jul-25 11:31N 43°24' E 004°57'0 0.1
2016-Jul-25 10:28N 43°24' E 004°57'0 0.1
2016-Jul-25 09:31N 43°24' E 004°57'0 0.0
2016-Jul-25 08:31N 43°24' E 004°57'0 0.0
2016-Jul-25 07:31N 43°24' E 004°57'0 0.0
2016-Jul-25 06:31N 43°24' E 004°57'0 0.0
2016-Jul-25 05:25N 43°24' E 004°57'0 0.0
2016-Jul-25 04:31N 43°24' E 004°57'0 0.0
2016-Jul-25 03:28N 43°24' E 004°57'0 0.0
2016-Jul-25 02:31N 43°24' E 004°57'0 0.0
2016-Jul-25 01:25N 43°24' E 004°57'0 0.1
2016-Jul-25 00:31N 43°24' E 004°57'0 0.0
2016-Jul-24 23:31N 43°24' E 004°57'0 0.0
2016-Jul-24 22:31N 43°24' E 004°57'0 0.0
2016-Jul-24 21:31N 43°24' E 004°57'0 0.1
2016-Jul-24 20:28N 43°24' E 004°57'0 0.0
2016-Jul-24 19:31N 43°24' E 004°57'0 0.0
2016-Jul-24 18:28N 43°24' E 004°57'0 0.0
2016-Jul-24 17:31N 43°24' E 004°57'0 0.0
2016-Jul-24 16:31N 43°24' E 004°57'0 0.0
2016-Jul-24 15:31N 43°24' E 004°57'0 0.0
2016-Jul-24 14:31N 43°24' E 004°57'0 0.0
2016-Jul-24 13:31N 43°24' E 004°57'0 0.0
2016-Jul-24 12:31N 43°24' E 004°57'0 0.0
2016-Jul-24 11:31N 43°24' E 004°57'0 0.0
2016-Jul-24 10:31N 43°24' E 004°57'0 0.0
2016-Jul-24 09:31N 43°24' E 004°57'0 0.0
2016-Jul-24 08:31N 43°24' E 004°57'0 0.0
2016-Jul-24 07:31N 43°24' E 004°57'0 0.0
2016-Jul-24 06:31N 43°24' E 004°57'0 0.0
2016-Jul-24 05:31N 43°24' E 004°57'0 0.1
2016-Jul-24 04:31N 43°24' E 004°57'0 0.0
2016-Jul-24 03:31N 43°24' E 004°57'0 0.0
2016-Jul-24 02:31N 43°24' E 004°57'0 0.0
2016-Jul-24 01:28N 43°24' E 004°57'0 0.0
2016-Jul-24 00:31N 43°24' E 004°57'0 0.0
2016-Jul-23 23:31N 43°24' E 004°57'0 0.0
2016-Jul-23 22:31N 43°24' E 004°57'0 0.0
2016-Jul-23 21:31N 43°24' E 004°57'0 0.0
2016-Jul-23 20:31N 43°24' E 004°57'0 0.0
2016-Jul-23 19:31N 43°24' E 004°57'2 1.7
2016-Jul-23 18:33N 43°24' E 004°60'0 0.1
2016-Jul-23 17:28N 43°24' E 004°60'0 0.0
2016-Jul-23 16:31N 43°24' E 004°60'0 0.0
2016-Jul-23 15:32N 43°24' E 004°60'0 0.0
2016-Jul-23 14:31N 43°24' E 004°60'0 0.0
2016-Jul-23 13:31N 43°24' E 004°60'0 0.0
2016-Jul-23 12:31N 43°24' E 004°60'0 0.0
2016-Jul-23 11:32N 43°24' E 004°60'0 0.0
2016-Jul-23 10:31N 43°24' E 004°60'0 0.0
2016-Jul-23 09:31N 43°24' E 004°60'0 0.0
2016-Jul-23 08:29N 43°24' E 004°60'0 0.0
2016-Jul-23 07:31N 43°24' E 004°60'0 0.0
2016-Jul-23 06:28N 43°24' E 004°60'0 0.0
2016-Jul-23 04:31N 43°24' E 004°60'0 0.0
2016-Jul-23 03:31N 43°24' E 004°60'0 0.0
2016-Jul-23 02:31N 43°24' E 004°60'0 0.0
2016-Jul-23 01:31N 43°24' E 004°60'0 0.0
2016-Jul-23 00:31N 43°24' E 004°60'0 0.0
2016-Jul-22 23:29N 43°24' E 004°60'0 0.0
2016-Jul-22 22:28N 43°24' E 004°60'0 0.0
2016-Jul-22 21:31N 43°24' E 004°60'0 0.0
2016-Jul-22 20:32N 43°24' E 004°60'0 0.0
2016-Jul-22 19:32N 43°24' E 004°60'0 0.0
2016-Jul-22 18:32N 43°24' E 004°60'0 0.0
2016-Jul-22 17:31N 43°24' E 004°60'0 0.0
2016-Jul-22 16:28N 43°24' E 004°60'0 0.0
2016-Jul-22 15:32N 43°24' E 004°60'0 0.0
2016-Jul-22 14:29N 43°24' E 004°60'0 0.0
2016-Jul-22 13:31N 43°24' E 004°60'0 0.0
2016-Jul-22 12:28N 43°24' E 004°60'0 0.0
2016-Jul-22 11:31N 43°24' E 004°60'0 0.0
2016-Jul-22 10:31N 43°24' E 004°60'0 0.0
2016-Jul-22 09:32N 43°24' E 004°60'0 0.0
2016-Jul-22 08:31N 43°24' E 004°60'0 0.0
2016-Jul-22 07:31N 43°24' E 004°60'0 0.0
2016-Jul-22 04:31N 43°24' E 004°60'0 0.0
2016-Jul-22 03:28N 43°24' E 004°60'0 0.0
2016-Jul-22 02:31N 43°24' E 004°60'0 0.0
2016-Jul-22 01:32N 43°24' E 004°60'0 0.0
2016-Jul-22 00:31N 43°24' E 004°60'0 0.0
2016-Jul-21 23:32N 43°24' E 004°60'0 0.0
2016-Jul-21 22:31N 43°24' E 004°60'0 0.0
2016-Jul-21 21:28N 43°24' E 004°60'0 0.0
2016-Jul-21 20:32N 43°24' E 004°60'0 0.0
2016-Jul-21 19:31N 43°24' E 004°60'0 0.0
2016-Jul-21 18:28N 43°24' E 004°60'0 0.0
2016-Jul-21 17:32N 43°24' E 004°60'0 0.0
2016-Jul-21 16:31N 43°24' E 004°60'0 0.0
2016-Jul-21 15:33N 43°24' E 004°60'0 0.0
2016-Jul-21 14:33N 43°24' E 004°60'0 0.0
2016-Jul-21 13:33N 43°24' E 004°60'0 0.0
2016-Jul-21 12:33N 43°24' E 004°60'0 0.0
2016-Jul-21 11:33N 43°24' E 004°60'0 0.0
2016-Jul-21 10:30N 43°24' E 004°60'0 0.0
2016-Jul-21 09:33N 43°24' E 004°60'0 0.0
2016-Jul-21 08:12N 43°24' E 004°60'0 0.0
2016-Jul-21 07:30N 43°24' E 004°60'0 0.0
2016-Jul-21 06:30N 43°24' E 004°60'0 0.0
2016-Jul-21 05:30N 43°24' E 004°60'0 0.0
2016-Jul-21 04:30N 43°24' E 004°60'0 0.0
2016-Jul-21 03:30N 43°24' E 004°60'0 0.0
2016-Jul-21 02:30N 43°24' E 004°60'0 0.0
2016-Jul-21 01:30N 43°24' E 004°60'  

Dump ship's entire track history